Time;durP1;ratioP1;P1;durP2;ratioP2;P2;SDS_P1;SDS_P2;PMS_P1;PMS_P2;Temp;Humidity;BMP_temperature;BMP_pressure;BME280_temperature;BME280_humidity;BME280_pressure;Samples;Min_cycle;Max_cycle;Signal;HPM_P1;HPM_P2
2022/05/31 00:00:09;;;;;;;9.45;3.65;;;;;;;12.08;64.16;101284.28;5029135;28;20400;-50
2022/05/31 00:02:57;;;;;;;9.73;3.70;;;;;;;12.06;64.15;101283.72;5007017;28;20061;-51
2022/05/31 00:05:44;;;;;;;6.47;3.28;;;;;;;12.06;64.01;101283.72;5020619;28;20149;-50
2022/05/31 00:08:33;;;;;;;8.73;3.63;;;;;;;12.04;64.63;101288.63;5028498;28;20050;-48
2022/05/31 00:11:21;;;;;;;7.90;3.50;;;;;;;12.04;64.73;101275.78;5022525;28;20052;-48
2022/05/31 00:14:10;;;;;;;8.70;3.53;;;;;;;12.02;64.71;101280.69;5023142;28;20432;-51
2022/05/31 00:17:00;;;;;;;8.70;3.22;;;;;;;11.99;64.83;101275.78;5026502;28;20488;-47
2022/05/31 00:19:38;;;;;;;8.52;3.63;;;;;;;11.94;64.81;101273.84;5028298;28;20073;-53
2022/05/31 00:22:27;;;;;;;7.65;3.50;;;;;;;11.92;64.94;101265.09;5024250;28;20042;-48
2022/05/31 00:25:16;;;;;;;5.80;3.33;;;;;;;11.91;64.86;101265.38;5017320;28;20490;-53
2022/05/31 00:28:04;;;;;;;7.45;3.40;;;;;;;11.94;65.03;101268.38;5026956;28;20060;-48
2022/05/31 00:30:52;;;;;;;7.93;3.38;;;;;;;12.02;64.72;101268.97;5019318;28;20504;-48
2022/05/31 00:33:40;;;;;;;11.98;3.80;;;;;;;12.03;63.51;101265.97;5023773;28;20535;-46
2022/05/31 00:36:28;;;;;;;5.63;2.80;;;;;;;11.99;63.76;101273.03;5026017;28;20042;-47
2022/05/31 00:39:15;;;;;;;6.40;3.38;;;;;;;11.96;63.94;101270.03;5031676;28;20041;-47
2022/05/31 00:42:09;;;;;;;6.15;3.30;;;;;;;11.99;63.85;101264.03;5016673;28;20400;-45
2022/05/31 00:44:57;;;;;;;6.18;3.20;;;;;;;12.00;63.75;101265.66;5012879;28;20042;-48
2022/05/31 00:47:45;;;;;;;7.53;3.38;;;;;;;11.95;64.03;101269.19;5022846;28;20050;-47
2022/05/31 00:50:38;;;;;;;6.32;3.47;;;;;;;11.94;64.04;101265.66;5017888;28;20045;-47
2022/05/31 00:53:29;;;;;;;6.80;3.03;;;;;;;11.99;64.52;101264.03;5029617;28;20042;-48
2022/05/31 00:56:25;;;;;;;6.38;3.03;;;;;;;12.05;63.71;101263.81;5026701;28;20397;-48
2022/05/31 00:59:17;;;;;;;4.30;2.80;;;;;;;12.06;63.84;101268.16;5025745;28;20092;-46
2022/05/31 01:02:06;;;;;;;7.38;2.92;;;;;;;12.02;63.69;101264.31;5029018;28;20052;-47
2022/05/31 01:04:59;;;;;;;5.65;3.03;;;;;;;12.01;64.03;101270.88;5028925;28;20484;-47
2022/05/31 01:07:47;;;;;;;7.90;3.03;;;;;;;11.99;63.63;101270.31;5017657;28;20488;-47
2022/05/31 01:10:35;;;;;;;6.95;3.20;;;;;;;11.98;64.46;101262.38;5032063;28;20037;-46
2022/05/31 01:13:43;;;;;;;7.53;3.50;;;;;;;11.91;64.37;101268.09;5034267;28;20128;-45
2022/05/31 01:17:04;;;;;;;11.48;3.63;;;;;;;11.81;64.78;101265.28;5017913;28;20044;-46
2022/05/31 01:20:13;;;;;;;8.43;3.47;;;;;;;11.76;64.94;101266.09;5035215;28;20056;-45
2022/05/31 01:23:16;;;;;;;7.20;3.15;;;;;;;11.68;64.87;101261.13;5015789;28;20149;-48
2022/05/31 01:26:29;;;;;;;7.88;3.50;;;;;;;11.60;65.35;101259.72;5018870;28;20049;-49
2022/05/31 01:29:33;;;;;;;6.53;3.15;;;;;;;11.56;65.88;101260.50;5019293;28;20048;-48
2022/05/31 01:32:21;;;;;;;5.38;2.97;;;;;;;11.52;65.97;101261.03;5028745;28;20046;-50
2022/05/31 01:35:23;;;;;;;6.93;3.17;;;;;;;11.59;65.60;101255.31;5025153;28;20038;-48
2022/05/31 01:38:19;;;;;;;7.32;3.25;;;;;;;11.62;65.56;101257.56;5023053;28;20046;-48
2022/05/31 01:41:19;;;;;;;5.50;3.05;;;;;;;11.59;65.93;101259.97;5000077;28;20053;-47
2022/05/31 01:43:57;;;;;;;7.53;3.13;;;;;;;11.57;65.35;101253.94;4998936;28;20104;-46
2022/05/31 01:46:46;;;;;;;8.32;3.38;;;;;;;11.52;65.40;101250.13;5028430;28;20053;-47
2022/05/31 01:49:41;;;;;;;4.50;2.70;;;;;;;11.51;65.75;101247.66;5030596;28;20057;-50
2022/05/31 01:52:31;;;;;;;10.50;3.28;;;;;;;11.54;65.82;101243.56;5028473;28;20048;-47
2022/05/31 01:55:20;;;;;;;7.07;3.38;;;;;;;11.52;66.09;101244.66;5019659;28;20060;-48
2022/05/31 01:58:12;;;;;;;6.10;3.08;;;;;;;11.57;66.03;101245.75;5031075;28;20076;-49
2022/05/31 02:01:03;;;;;;;10.40;3.40;;;;;;;11.57;65.61;101243.03;4996807;28;20504;-48
2022/05/31 02:03:51;;;;;;;8.70;3.60;;;;;;;11.56;65.81;101253.13;5016390;28;20501;-49
2022/05/31 02:06:40;;;;;;;5.50;3.00;;;;;;;11.52;65.64;101247.41;5026649;28;20056;-48
2022/05/31 02:09:27;;;;;;;7.13;3.25;;;;;;;11.47;66.27;101244.66;5033986;28;20594;-49
2022/05/31 02:12:16;;;;;;;6.82;3.20;;;;;;;11.40;65.89;101241.31;5031695;28;20050;-48
2022/05/31 02:15:20;;;;;;;7.82;3.45;;;;;;;11.37;66.62;101239.09;5015206;28;20056;-48
2022/05/31 02:19:25;;;;;;;12.60;4.20;;;;;;;11.35;66.81;101238.53;5018289;28;20085;-51
2022/05/31 02:22:22;;;;;;;6.28;3.15;;;;;;;11.29;66.83;101242.34;5028343;28;20049;-50
2022/05/31 02:25:10;;;;;;;6.20;3.40;;;;;;;11.24;67.13;101236.84;5014049;28;20136;-49
2022/05/31 02:27:58;;;;;;;9.48;3.47;;;;;;;11.22;67.14;101241.72;5017619;28;20057;-49
2022/05/31 02:30:46;;;;;;;7.45;3.33;;;;;;;11.19;67.15;101250.44;5029880;28;20056;-47
2022/05/31 02:33:34;;;;;;;7.75;3.33;;;;;;;11.20;68.03;101252.09;5030973;28;20053;-45
2022/05/31 02:36:22;;;;;;;7.72;3.67;;;;;;;11.17;68.20;101247.16;5030483;28;20415;-47
2022/05/31 02:39:10;;;;;;;7.90;3.42;;;;;;;11.14;67.89;101253.97;5009838;28;20519;-47
2022/05/31 02:42:02;;;;;;;10.43;3.80;;;;;;;11.10;68.10;101244.66;5015912;28;20041;-48
2022/05/31 02:44:51;;;;;;;8.05;3.47;;;;;;;11.04;68.38;101238.34;5007802;28;20046;-47
2022/05/31 02:47:40;;;;;;;9.65;3.58;;;;;;;11.02;68.62;101229.59;5032675;28;20385;-50
2022/05/31 02:50:28;;;;;;;7.00;3.47;;;;;;;11.01;68.80;101233.38;5014708;28;20042;-46
2022/05/31 02:53:15;;;;;;;8.02;3.83;;;;;;;10.98;69.15;101233.09;5025582;28;20045;-48
2022/05/31 02:56:03;;;;;;;10.70;3.65;;;;;;;10.96;69.47;101225.16;5027026;28;20056;-48
2022/05/31 02:59:09;;;;;;;5.97;3.38;;;;;;;11.01;69.58;101222.47;5029753;28;20096;-49
2022/05/31 03:02:26;;;;;;;5.88;3.10;;;;;;;11.07;69.67;101221.44;5022449;28;20048;-49
2022/05/31 03:05:33;;;;;;;6.57;3.20;;;;;;;11.23;69.40;101227.00;5022730;28;20404;-49
2022/05/31 03:08:36;;;;;;;6.78;3.50;;;;;;;11.29;68.55;101232.22;5006614;28;20052;-48
2022/05/31 03:11:57;;;;;;;7.43;3.40;;;;;;;11.33;68.06;101227.09;5027612;28;20407;-49
2022/05/31 03:14:52;;;;;;;8.15;3.58;;;;;;;11.29;68.30;101225.97;5025864;28;20087;-49
2022/05/31 03:17:51;;;;;;;8.05;3.58;;;;;;;11.19;68.68;101223.19;5031479;28;20444;-45
2022/05/31 03:20:46;;;;;;;5.88;3.60;;;;;;;11.11;68.98;101229.09;5023049;28;20046;-47
2022/05/31 03:23:42;;;;;;;8.75;3.50;;;;;;;11.05;69.73;101220.06;5027189;28;20056;-48
2022/05/31 03:26:32;;;;;;;7.53;3.40;;;;;;;11.03;70.04;101225.78;5022781;28;20496;-49
2022/05/31 03:29:20;;;;;;;7.85;3.80;;;;;;;11.04;69.72;101226.59;5028756;28;20436;-48
2022/05/31 03:32:08;;;;;;;10.45;3.90;;;;;;;11.09;69.56;101222.00;5010718;28;20411;-47
2022/05/31 03:34:56;;;;;;;11.85;4.28;;;;;;;11.14;69.78;101223.16;5025188;28;20053;-51
2022/05/31 03:37:44;;;;;;;11.00;3.90;;;;;;;11.12;69.33;101219.84;5012556;28;20107;-47
2022/05/31 03:40:58;;;;;;;9.90;4.15;;;;;;;11.08;69.91;101217.63;5025689;28;20051;-48
2022/05/31 03:43:58;;;;;;;7.32;3.83;;;;;;;11.08;69.65;101217.63;5026470;28;20054;-45
2022/05/31 03:47:05;;;;;;;7.88;4.00;;;;;;;11.15;69.56;101211.94;5023857;28;20137;-48
2022/05/31 03:50:09;;;;;;;8.07;3.85;;;;;;;11.22;69.84;101222.66;5010503;28;20049;-47
2022/05/31 03:52:58;;;;;;;8.35;3.97;;;;;;;11.21;69.61;101221.00;5017054;28;20064;-53
2022/05/31 03:55:31;;;;;;;10.55;4.47;;;;;;;11.19;70.02;101220.44;5016123;28;20061;-53
2022/05/31 03:58:20;;;;;;;8.07;4.03;;;;;;;11.22;70.09;101222.66;5019496;28;20049;-48
2022/05/31 04:01:28;;;;;;;7.88;4.05;;;;;;;11.22;70.16;101222.66;5026512;28;20136;-48
2022/05/31 04:04:17;;;;;;;9.55;4.43;;;;;;;11.22;70.29;101217.19;5028933;28;20049;-48
2022/05/31 04:07:05;;;;;;;8.57;4.07;;;;;;;11.19;69.88;101220.44;5015511;28;20057;-55
2022/05/31 04:09:54;;;;;;;13.52;4.70;;;;;;;11.14;70.30;101214.97;5024827;28;20463;-54
2022/05/31 04:12:41;;;;;;;8.73;4.03;;;;;;;11.09;71.12;101219.28;5010088;28;20141;-49
2022/05/31 04:16:10;;;;;;;11.00;4.68;;;;;;;11.09;71.24;101213.03;5028425;28;20129;-50
2022/05/31 04:19:02;;;;;;;9.48;4.45;;;;;;;11.09;71.37;101213.84;5027371;28;20038;-50
2022/05/31 04:21:50;;;;;;;9.88;4.30;;;;;;;11.16;71.23;101215.50;5014991;28;20081;-51
2022/05/31 04:24:38;;;;;;;7.97;4.28;;;;;;;11.20;70.55;101220.16;5023529;28;20080;-49
2022/05/31 04:27:44;;;;;;;10.52;4.75;;;;;;;11.20;70.78;101211.97;5032455;28;20416;-47
2022/05/31 04:31:00;;;;;;;12.77;4.85;;;;;;;11.21;70.53;101210.09;5025853;28;20137;-46
2022/05/31 04:33:56;;;;;;;10.15;4.50;;;;;;;11.17;71.25;101208.97;5024684;28;20050;-49
2022/05/31 04:36:44;;;;;;;10.88;4.20;;;;;;;11.18;71.10;101213.34;5021751;28;20048;-50
2022/05/31 04:39:35;;;;;;;10.43;4.43;;;;;;;11.17;71.49;101215.25;5034978;28;20522;-47
2022/05/31 04:42:30;;;;;;;12.00;5.00;;;;;;;11.20;71.59;101216.63;5033399;28;20048;-48
2022/05/31 04:45:18;;;;;;;12.63;4.40;;;;;;;11.20;71.49;101220.16;5029616;28;20042;-46
2022/05/31 04:48:07;;;;;;;12.35;4.60;;;;;;;11.26;70.87;101218.31;5033264;28;20081;-47
2022/05/31 04:50:54;;;;;;;11.15;4.60;;;;;;;11.28;70.76;101219.69;5015914;28;20054;-45
2022/05/31 04:53:45;;;;;;;8.13;4.45;;;;;;;11.30;71.04;101224.88;5034730;28;20495;-46
2022/05/31 04:56:41;;;;;;;;;;;;;;;11.37;71.00;101224.63;5030811;28;20499;-47
2022/05/31 04:59:30;;;;;;;11.57;4.40;;;;;;;11.43;70.50;101235.34;5029561;28;19921;-47
2022/05/31 05:02:18;;;;;;;12.48;5.05;;;;;;;11.48;70.04;101221.72;5025652;28;20052;-48
2022/05/31 05:05:11;;;;;;;13.60;5.28;;;;;;;11.47;70.27;101209.16;5034630;28;20107;-48
2022/05/31 05:08:09;;;;;;;9.27;4.57;;;;;;;11.48;70.26;101208.06;5024793;28;20116;-46
2022/05/31 05:11:05;;;;;;;11.70;5.18;;;;;;;11.48;70.02;101209.97;5033131;28;20041;-48
2022/05/31 05:14:01;;;;;;;10.82;5.20;;;;;;;11.47;70.53;101208.31;5023386;28;20080;-47
2022/05/31 05:17:14;;;;;;;9.50;4.68;;;;;;;11.50;70.78;101210.53;5021866;28;20042;-51
2022/05/31 05:20:07;;;;;;;9.25;5.00;;;;;;;11.54;69.83;101214.38;5030255;28;20132;-48
2022/05/31 05:22:55;;;;;;;8.65;5.07;;;;;;;11.55;70.59;101213.28;5019163;28;20046;-47
2022/05/31 05:25:50;;;;;;;10.07;5.28;;;;;;;11.56;70.33;101217.66;5005180;28;20564;-46
2022/05/31 05:32:10;;;;;;;12.00;6.20;;;;;;;11.64;70.04;101199.94;5028686;28;20057;-48
2022/05/31 05:34:57;;;;;;;13.63;5.45;;;;;;;11.61;70.25;101205.94;5033004;28;20495;-48
2022/05/31 05:37:47;;;;;;;11.05;6.00;;;;;;;11.60;69.90;101204.31;5014373;28;20065;-51
2022/05/31 05:40:39;;;;;;;11.95;5.65;;;;;;;11.59;70.50;101213.56;5026579;28;20056;-51
2022/05/31 05:43:27;;;;;;;14.55;5.93;;;;;;;11.58;70.07;101211.94;5013036;28;20045;-48
2022/05/31 05:46:21;;;;;;;11.55;5.47;;;;;;;11.61;70.32;101208.69;5032012;28;20037;-51
2022/05/31 05:49:09;;;;;;;9.90;5.57;;;;;;;11.62;70.28;101210.34;5031939;28;20073;-49
2022/05/31 05:52:02;;;;;;;12.05;5.57;;;;;;;11.64;70.51;101213.59;5023085;28;20045;-50
2022/05/31 05:55:08;;;;;;;13.80;5.55;;;;;;;11.65;70.60;101215.25;5028376;28;20045;-48
2022/05/31 05:57:55;;;;;;;14.90;6.13;;;;;;;11.63;71.07;101207.31;5020746;28;20072;-46
2022/05/31 06:01:15;;;;;;;16.35;5.40;;;;;;;11.65;71.24;101215.25;5013964;28;20046;-46
2022/05/31 06:04:31;;;;;;;14.30;6.05;;;;;;;11.63;71.39;101209.25;5006489;28;20045;-49
2022/05/31 06:07:28;;;;;;;15.30;6.20;;;;;;;11.60;71.94;101210.59;5025339;28;20100;-47
2022/05/31 06:10:42;;;;;;;11.48;5.55;;;;;;;11.62;71.65;101210.34;5017979;28;20056;-49
2022/05/31 06:13:38;;;;;;;11.32;5.22;;;;;;;11.64;71.49;101208.13;4324019;28;10000727;-48
2022/05/31 06:16:30;;;;;;;11.65;5.03;;;;;;;11.64;72.60;101208.13;5008624;28;20054;-54
2022/05/31 06:19:08;;;;;;;19.63;6.25;;;;;;;11.62;72.42;101210.34;5024654;28;20038;-51
2022/05/31 06:21:56;;;;;;;11.93;5.40;;;;;;;11.62;73.02;101210.34;5025243;28;20480;-50
2022/05/31 06:24:57;;;;;;;13.73;5.70;;;;;;;11.64;72.74;101202.69;5027432;28;20127;-47
2022/05/31 06:28:20;;;;;;;10.93;5.38;;;;;;;11.67;72.78;101199.44;5020096;28;20076;-49
2022/05/31 06:31:08;;;;;;;13.50;5.72;;;;;;;11.65;72.98;101199.69;5021005;28;20056;-48
2022/05/31 06:33:56;;;;;;;13.18;5.75;;;;;;;11.62;73.79;101200.22;5029056;28;20513;-48
2022/05/31 06:37:09;;;;;;;13.30;5.00;;;;;;;11.64;73.17;101198.06;5008378;28;20111;-49
2022/05/31 06:39:58;;;;;;;13.82;5.85;;;;;;;11.67;73.25;101202.97;5019294;28;20052;-50
2022/05/31 06:43:12;;;;;;;18.75;6.20;;;;;;;11.73;73.76;101201.91;5015088;28;20123;-49
2022/05/31 06:46:24;;;;;;;14.27;5.95;;;;;;;11.77;73.21;101206.84;5010009;28;20080;-48
2022/05/31 06:49:31;;;;;;;12.02;5.88;;;;;;;11.80;74.12;101207.13;5019279;28;20179;-43
2022/05/31 06:56:54;;;;;;;11.55;5.95;;;;;;;11.86;73.68;101194.34;5021710;28;20073;-49
2022/05/31 06:59:45;;;;;;;11.25;5.30;;;;;;;11.91;73.95;101203.38;5014641;28;20045;-48
2022/05/31 07:02:34;;;;;;;11.75;5.63;;;;;;;11.94;73.34;101200.13;5028098;28;20042;-48
2022/05/31 07:05:22;;;;;;;12.05;4.95;;;;;;;12.00;73.35;101209.16;5029653;28;20129;-49
2022/05/31 07:08:11;;;;;;;13.02;6.18;;;;;;;12.02;73.43;101203.41;5024788;28;20053;-48
2022/05/31 07:11:17;;;;;;;9.38;5.90;;;;;;;12.04;72.72;101199.31;5016995;28;20053;-51
2022/05/31 07:14:27;;;;;;;11.48;5.43;;;;;;;12.08;73.43;101196.91;5029573;28;20105;-50
2022/05/31 07:17:35;;;;;;;10.45;5.18;;;;;;;12.14;72.99;101199.34;5017304;28;20050;-49
2022/05/31 07:20:23;;;;;;;12.23;5.68;;;;;;;12.19;72.21;101195.81;5027820;28;20107;-48
2022/05/31 07:23:12;;;;;;;12.55;5.90;;;;;;;12.25;72.89;101193.94;5022222;28;20053;-50
2022/05/31 07:26:10;;;;;;;14.55;6.03;;;;;;;12.32;72.21;101192.56;5029015;28;20397;-47
2022/05/31 07:29:18;;;;;;;11.52;5.72;;;;;;;12.41;72.40;101192.03;5020871;28;20050;-49
2022/05/31 07:32:07;;;;;;;15.63;6.40;;;;;;;12.48;71.39;101190.69;5010926;28;20061;-45
2022/05/31 07:35:15;;;;;;;13.27;5.38;;;;;;;12.56;70.99;101194.78;5023021;28;20128;-47
2022/05/31 07:38:04;;;;;;;8.73;5.00;;;;;;;12.64;70.41;101194.25;5010028;28;20050;-48
2022/05/31 07:40:53;;;;;;;12.75;6.30;;;;;;;12.72;69.71;101201.06;5028718;28;20060;-49
2022/05/31 07:43:41;;;;;;;12.15;5.85;;;;;;;12.78;69.05;101194.53;5009019;28;20057;-47
2022/05/31 07:46:31;;;;;;;9.80;5.45;;;;;;;12.84;68.76;101193.41;5026418;28;20096;-52
2022/05/31 07:49:18;;;;;;;10.13;5.80;;;;;;;12.89;68.88;101196.16;4993927;28;20077;-51
2022/05/31 07:52:12;;;;;;;10.75;4.90;;;;;;;12.96;66.94;101190.41;5011571;28;20088;-46
2022/05/31 07:55:23;;;;;;;8.60;5.07;;;;;;;13.00;66.79;101181.38;5021137;28;20516;-48
2022/05/31 07:58:30;;;;;;;10.07;5.15;;;;;;;13.06;66.19;101184.94;5015886;28;20455;-47
2022/05/31 08:01:27;;;;;;;13.27;6.00;;;;;;;13.13;65.87;101181.91;5024178;28;20041;-50
2022/05/31 08:04:23;;;;;;;8.98;5.50;;;;;;;13.20;65.86;101179.69;5007541;28;20056;-50
2022/05/31 08:06:59;;;;;;;13.35;5.00;;;;;;;13.27;66.14;101176.69;5023023;28;20062;-50
2022/05/31 08:09:47;;;;;;;9.48;4.75;;;;;;;13.32;64.76;101176.69;5024057;28;20452;-46
2022/05/31 08:12:35;;;;;;;7.20;4.57;;;;;;;13.39;65.41;101177.22;5031495;28;20060;-46
2022/05/31 08:15:22;;;;;;;9.95;4.75;;;;;;;13.48;63.94;101180.22;5017448;28;20052;-45
2022/05/31 08:18:10;;;;;;;10.48;4.80;;;;;;;13.55;63.72;101176.09;5019844;28;20052;-46
2022/05/31 08:21:03;;;;;;;14.85;5.00;;;;;;;13.58;63.40;101181.00;5021682;28;20045;-48
2022/05/31 08:23:51;;;;;;;11.23;4.63;;;;;;;13.66;63.37;101165.09;5032689;28;20513;-46
2022/05/31 08:26:44;;;;;;;6.45;3.90;;;;;;;13.71;62.70;101171.38;5025223;28;20058;-46
2022/05/31 08:29:32;;;;;;;8.90;3.90;;;;;;;13.79;62.86;101159.81;5017199;28;20420;-47
2022/05/31 08:32:20;;;;;;;13.80;4.75;;;;;;;13.92;62.84;101174.81;5031638;28;20046;-46
2022/05/31 08:35:08;;;;;;;10.05;4.05;;;;;;;13.93;61.82;101170.19;5027770;28;20050;-46
2022/05/31 08:37:56;;;;;;;8.43;4.00;;;;;;;13.97;61.02;101166.56;5009306;28;20128;-48
2022/05/31 08:41:06;;;;;;;12.23;4.07;;;;;;;13.96;60.73;101159.47;5018376;28;20427;-46
2022/05/31 08:44:05;;;;;;;8.93;4.10;;;;;;;13.95;60.99;101160.56;5019323;28;20057;-49
2022/05/31 08:46:59;;;;;;;7.82;3.85;;;;;;;14.02;61.78;101157.50;5025241;28;20147;-49
2022/05/31 08:53:28;;;;;;;12.85;4.82;;;;;;;14.14;61.75;101154.41;5018945;28;20598;-48
2022/05/31 08:59:57;;;;;;;11.02;4.38;;;;;;;14.27;63.00;101149.13;5024473;28;20049;-48
2022/05/31 09:02:55;;;;;;;8.25;4.47;;;;;;;14.31;60.37;101154.03;5028580;28;20046;-50
2022/05/31 09:06:01;;;;;;;7.82;3.97;;;;;;;14.32;59.82;101150.22;5018520;28;20060;-49
2022/05/31 09:08:58;;;;;;;8.88;4.10;;;;;;;14.30;58.26;101155.97;5021616;28;20419;-50
2022/05/31 09:12:22;;;;;;;12.00;4.35;;;;;;;14.31;59.21;101160.34;5016605;28;20053;-49
2022/05/31 09:15:31;;;;;;;8.90;4.63;;;;;;;14.37;59.65;101170.16;5029975;28;20037;-48
2022/05/31 09:18:38;;;;;;;9.63;4.40;;;;;;;14.40;59.48;101169.59;5027704;28;20072;-48
2022/05/31 09:21:34;;;;;;;8.73;4.80;;;;;;;14.41;58.94;101165.75;5025629;28;20041;-47
2022/05/31 09:24:23;;;;;;;9.80;4.53;;;;;;;14.47;58.92;101163.78;5016636;28;20052;-51
2022/05/31 09:27:13;;;;;;;8.73;4.38;;;;;;;14.52;60.04;101160.19;5031464;28;20049;-47
2022/05/31 09:30:30;;;;;;;10.07;4.90;;;;;;;14.60;59.04;101156.84;5034150;28;20045;-48
2022/05/31 09:33:29;;;;;;;8.15;4.50;;;;;;;14.66;58.43;101162.03;5021170;28;20484;-50
2022/05/31 09:36:40;;;;;;;8.55;4.68;;;;;;;14.72;58.23;101167.47;5022286;28;20128;-49
2022/05/31 09:40:01;;;;;;;9.90;4.82;;;;;;;14.77;58.42;101159.19;5019576;28;20042;-50
2022/05/31 09:43:08;;;;;;;9.25;4.28;;;;;;;14.80;58.10;101162.19;5017541;28;20053;-50
2022/05/31 09:46:10;;;;;;;8.13;3.95;;;;;;;14.83;58.82;101158.84;5029535;28;20053;-54
2022/05/31 09:48:59;;;;;;;9.93;4.00;;;;;;;14.88;59.38;101158.00;5028891;28;20492;-55
2022/05/31 09:51:47;;;;;;;7.95;4.28;;;;;;;14.90;57.55;101162.09;5021814;28;20049;-52
2022/05/31 09:58:40;;;;;;;10.70;5.10;;;;;;;14.95;57.90;101163.97;5016878;28;20045;-50
2022/05/31 10:01:31;;;;;;;8.90;4.40;;;;;;;14.97;56.68;101155.44;5029250;28;20408;-53
2022/05/31 10:04:33;;;;;;;11.57;4.90;;;;;;;15.03;57.45;101154.28;5014048;28;20042;-50
2022/05/31 10:07:37;;;;;;;8.15;4.20;;;;;;;15.03;55.93;101154.28;4988409;28;1143335;-50
2022/05/31 10:10:34;;;;;;;9.52;4.75;;;;;;;15.05;57.46;101152.88;5019693;28;20056;-51
2022/05/31 10:13:37;;;;;;;8.43;4.40;;;;;;;15.10;55.44;101152.00;5030774;28;20065;-50
2022/05/31 10:16:31;;;;;;;9.00;4.40;;;;;;;15.18;56.43;101145.91;5015914;28;20049;-48
2022/05/31 10:19:28;;;;;;;7.43;4.30;;;;;;;15.16;56.16;101144.56;5031117;28;20068;-51
2022/05/31 10:22:22;;;;;;;11.38;4.72;;;;;;;15.17;55.21;101144.25;5025820;28;20037;-51
2022/05/31 10:25:51;;;;;;;7.55;4.40;;;;;;;15.23;55.40;101143.09;5024709;28;20048;-50
2022/05/31 10:28:58;;;;;;;7.45;4.22;;;;;;;15.30;54.60;101143.56;5020862;28;20171;-52
2022/05/31 10:31:58;;;;;;;9.75;4.13;;;;;;;15.32;54.13;101146.84;5020842;28;20057;-50
2022/05/31 10:34:47;;;;;;;9.35;4.30;;;;;;;15.33;54.08;101145.72;5024899;28;20500;-51
2022/05/31 10:37:35;;;;;;;9.57;4.50;;;;;;;15.40;55.56;101147.31;5016229;28;20053;-50
2022/05/31 10:40:26;;;;;;;10.63;4.50;;;;;;;15.54;57.51;101148.25;5027440;28;20052;-52
2022/05/31 10:43:30;;;;;;;7.60;4.18;;;;;;;15.56;56.65;101148.75;5022541;28;20049;-51
2022/05/31 10:46:21;;;;;;;9.15;4.60;;;;;;;15.57;52.82;101142.16;5012429;28;20053;-49
2022/05/31 10:49:29;;;;;;;10.40;3.72;;;;;;;15.70;61.15;101135.16;5019352;28;20492;-50
2022/05/31 10:52:39;;;;;;;8.48;3.70;;;;;;;15.73;53.64;101143.63;5017930;28;20374;-50
2022/05/31 10:55:12;;;;;;;;;;;;;;;15.89;62.32;101126.91;5021564;28;20103;-49
2022/05/31 10:58:19;;;;;;;9.77;4.60;;;;;;;15.87;52.28;101124.47;5028737;28;19921;-50
2022/05/31 11:01:33;;;;;;;10.20;4.80;;;;;;;15.86;51.60;101124.78;5032775;28;20076;-49
2022/05/31 11:04:50;;;;;;;8.57;4.47;;;;;;;15.85;50.56;101126.72;5030166;28;20099;-50
2022/05/31 11:11:28;;;;;;;10.30;4.53;;;;;;;15.57;48.68;101119.38;5013623;28;20116;-50
2022/05/31 11:14:41;;;;;;;9.30;4.05;;;;;;;15.62;48.99;101120.09;5023516;28;20103;-52
2022/05/31 11:17:54;;;;;;;8.73;4.60;;;;;;;15.82;48.16;101120.97;5021225;28;20042;-49
2022/05/31 11:21:11;;;;;;;8.38;4.40;;;;;;;15.87;48.63;101120.91;5015770;28;20133;-49
2022/05/31 11:24:08;;;;;;;8.77;3.72;;;;;;;15.86;49.95;101122.84;5030725;28;20412;-54
2022/05/31 11:27:30;;;;;;;7.93;4.45;;;;;;;15.89;48.88;101121.44;5028394;28;20056;-52
2022/05/31 11:30:44;;;;;;;7.43;4.00;;;;;;;15.88;50.74;101120.63;5020498;28;20050;-50
2022/05/31 11:34:10;;;;;;;9.15;4.20;;;;;;;15.86;50.41;101116.53;5012487;28;20049;-53
2022/05/31 11:37:16;;;;;;;10.98;4.70;;;;;;;15.88;51.33;101125.31;5028045;28;20136;-50
2022/05/31 11:40:24;;;;;;;7.85;4.25;;;;;;;15.87;50.46;101118.97;5022579;28;20060;-51
2022/05/31 11:43:34;;;;;;;12.30;4.80;;;;;;;15.86;50.68;101122.03;5017745;28;20121;-47
2022/05/31 11:46:37;;;;;;;8.50;4.35;;;;;;;15.84;50.56;101119.56;5020392;28;20120;-50
2022/05/31 11:50:07;;;;;;;10.63;4.75;;;;;;;15.85;50.03;101126.72;5015379;28;20042;-50
2022/05/31 11:53:14;;;;;;;11.07;4.95;;;;;;;15.86;51.41;101128.34;5017138;28;20115;-54
2022/05/31 11:56:19;;;;;;;10.40;5.63;;;;;;;15.84;50.97;101129.75;5017163;28;20045;-54
2022/05/31 11:59:15;;;;;;;11.37;5.43;;;;;;;15.79;50.91;101127.06;5022867;28;20041;-52
2022/05/31 12:02:02;;;;;;;;;;;;;;;15.75;51.84;101124.94;5021864;28;20136;-46
2022/05/31 12:04:54;;;;;;;9.55;3.53;;;;;;;15.75;52.25;101124.94;5018733;28;19964;-50
2022/05/31 12:08:07;;;;;;;8.68;4.78;;;;;;;15.80;53.19;101125.94;5008898;28;20054;-50
2022/05/31 12:11:21;;;;;;;7.47;3.33;;;;;;;15.94;56.80;101124.09;5029930;28;20053;-50
2022/05/31 12:14:11;;;;;;;12.23;5.47;;;;;;;15.98;52.76;101130.66;5016415;28;20056;-50
2022/05/31 12:16:41;;;;;;;10.52;5.65;;;;;;;16.01;53.01;101130.03;5018215;28;20053;-49
2022/05/31 12:19:45;;;;;;;8.27;5.18;;;;;;;16.05;52.14;101125.59;5018033;28;20465;-52
2022/05/31 12:22:38;;;;;;;10.13;4.53;;;;;;;16.13;52.00;101124.91;5024843;28;20085;-52
2022/05/31 12:25:30;;;;;;;9.38;4.10;;;;;;;16.18;51.66;101130.31;5015463;28;20045;-48
2022/05/31 12:28:24;;;;;;;9.07;4.40;;;;;;;16.23;51.72;101123.13;5023600;28;20069;-49
2022/05/31 12:31:25;;;;;;;8.35;3.50;;;;;;;16.32;48.61;101126.84;5016594;28;20046;-49
2022/05/31 12:34:21;;;;;;;5.53;2.97;;;;;;;16.29;46.79;101116.44;5017802;28;20054;-50
2022/05/31 12:37:12;;;;;;;6.72;3.00;;;;;;;16.26;45.70;101117.88;5022771;28;20511;-48
2022/05/31 12:40:32;;;;;;;8.10;3.25;;;;;;;16.27;46.79;101113.19;5019975;28;20046;-49
2022/05/31 12:43:42;;;;;;;6.15;2.92;;;;;;;16.43;49.04;101114.56;5019381;28;20095;-51
2022/05/31 12:46:36;;;;;;;5.97;2.97;;;;;;;16.59;46.54;101106.84;5020410;28;20054;-52
2022/05/31 12:49:28;;;;;;;4.60;2.80;;;;;;;16.68;47.48;101104.25;5015229;28;20069;-49
2022/05/31 12:55:31;;;;;;;5.57;2.83;;;;;;;16.89;53.54;101102.78;5019787;28;20045;-52
2022/05/31 12:58:33;;;;;;;4.50;2.60;;;;;;;16.93;44.31;101114.81;5032995;28;20373;-53
2022/05/31 13:01:24;;;;;;;5.15;2.53;;;;;;;16.97;46.47;101115.84;5032104;28;20040;-52
2022/05/31 13:04:25;;;;;;;4.82;2.65;;;;;;;17.01;43.58;101107.78;5022055;28;20042;-52
2022/05/31 13:07:18;;;;;;;5.10;2.90;;;;;;;17.01;41.93;101108.59;5033068;28;20419;-48
2022/05/31 13:10:32;;;;;;;5.32;2.80;;;;;;;16.97;41.47;101115.03;5035445;28;20379;-52
2022/05/31 13:20:33;;;;;;;5.43;2.67;;;;;;;16.95;45.71;101098.00;5032899;28;20060;-50
2022/05/31 13:23:24;;;;;;;5.97;3.00;;;;;;;16.94;43.51;101099.94;5020226;28;20393;-49
2022/05/31 13:26:20;;;;;;;6.32;2.83;;;;;;;16.91;42.68;101102.47;5028021;28;20068;-54
2022/05/31 13:29:10;;;;;;;5.88;2.75;;;;;;;16.86;42.53;101108.91;5014455;28;20661;-52
2022/05/31 13:31:56;;;;;;;6.35;2.72;;;;;;;16.77;42.08;101135.44;5029092;28;20061;-49
2022/05/31 13:34:49;;;;;;;;;;;;;;;16.55;46.05;101136.91;5033250;28;20485;-51
2022/05/31 13:37:49;;;;;;;6.15;3.83;;;;;;;16.17;50.28;101152.63;5014166;28;19928;-49
2022/05/31 13:40:42;;;;;;;10.20;3.85;;;;;;;15.76;52.42;101156.78;5031562;28;20048;-50
2022/05/31 13:44:05;;;;;;;19.15;4.35;;;;;;;15.57;53.93;101150.41;5025189;28;20501;-49
2022/05/31 13:46:53;;;;;;;8.02;3.80;;;;;;;15.53;55.32;101157.56;5011400;28;20525;-50
2022/05/31 13:49:43;;;;;;;7.75;3.80;;;;;;;15.46;57.55;101157.09;5019523;28;20096;-48
2022/05/31 13:52:31;;;;;;;10.38;4.20;;;;;;;15.30;60.63;101160.03;5028053;28;20049;-51
2022/05/31 13:55:24;;;;;;;8.10;4.05;;;;;;;15.26;61.11;101169.16;5031046;28;20507;-48
2022/05/31 13:58:15;;;;;;;7.38;3.65;;;;;;;15.29;62.16;101179.53;5031389;28;20052;-47
2022/05/31 14:01:06;;;;;;;6.68;3.55;;;;;;;15.39;62.60;101184.09;5034449;28;20049;-49
2022/05/31 14:03:54;;;;;;;8.27;3.80;;;;;;;15.39;59.33;101184.91;5026378;28;20519;-51
2022/05/31 14:06:50;;;;;;;7.60;3.22;;;;;;;15.52;59.04;101197.16;5019724;28;20046;-50
2022/05/31 14:09:39;;;;;;;10.40;3.85;;;;;;;15.66;61.95;101176.09;5021910;28;20053;-51